Time;durP1;ratioP1;P1;durP2;ratioP2;P2;SDS_P1;SDS_P2;PMS_P1;PMS_P2;Temp;Humidity;BMP_temperature;BMP_pressure;BME280_temperature;BME280_humidity;BME280_pressure;Samples;Min_cycle;Max_cycle;Signal;HPM_P1;HPM_P2
2022/03/26 00:00:13;;;;;;;31.67;22.80;;;;;;;;;;516302;28;1461;-70
2022/03/26 00:00:29;;;;;;;32.92;24.00;;;;;;;;;;516870;28;1661;-69
2022/03/26 00:00:44;;;;;;;34.00;25.20;;;;;;;;;;513513;28;1335;-69
2022/03/26 00:01:00;;;;;;;32.20;24.48;;;;;;;;;;513975;28;788;-70
2022/03/26 00:01:15;;;;;;;30.37;23.80;;;;;;;;;;513892;28;753;-69
2022/03/26 00:01:31;;;;;;;31.83;23.80;;;;;;;;;;513089;28;802;-69
2022/03/26 00:01:46;;;;;;;32.47;23.90;;;;;;;;;;513808;28;813;-69
2022/03/26 00:02:01;;;;;;;33.60;24.10;;;;;;;;;;514534;28;1137;-70
2022/03/26 00:02:16;;;;;;;32.83;23.27;;;;;;;;;;516060;28;931;-70
2022/03/26 00:02:32;;;;;;;31.42;22.80;;;;;;;;;;517313;28;950;-69
2022/03/26 00:02:48;;;;;;;32.50;23.03;;;;;;;;;;515994;28;939;-69
2022/03/26 00:03:04;;;;;;;31.95;23.00;;;;;;;;;;516173;28;887;-69
2022/03/26 00:03:19;;;;;;;31.92;23.17;;;;;;;;;;517833;28;784;-70
2022/03/26 00:03:36;;;;;;;31.48;22.55;;;;;;;;;;517997;28;875;-70
2022/03/26 00:03:51;;;;;;;29.48;22.20;;;;;;;;;;517671;28;1427;-70
2022/03/26 00:04:07;;;;;;;29.70;22.50;;;;;;;;;;517238;28;1180;-69
2022/03/26 00:04:22;;;;;;;29.55;22.35;;;;;;;;;;515915;28;904;-70
2022/03/26 00:04:38;;;;;;;30.50;22.15;;;;;;;;;;515700;28;774;-70
2022/03/26 00:04:53;;;;;;;32.50;22.43;;;;;;;;;;515933;28;844;-70
2022/03/26 00:05:09;;;;;;;30.83;22.37;;;;;;;;;;517905;28;796;-70
2022/03/26 00:05:24;;;;;;;30.70;22.48;;;;;;;;;;515201;28;1168;-69
2022/03/26 00:05:41;;;;;;;31.70;22.70;;;;;;;;;;514062;28;1195;-70
2022/03/26 00:05:56;;;;;;;30.98;22.55;;;;;;;;;;515164;28;785;-69
2022/03/26 00:06:12;;;;;;;30.55;22.45;;;;;;;;;;511241;28;1173;-69
2022/03/26 00:06:27;;;;;;;31.10;22.60;;;;;;;;;;511564;28;1221;-69
2022/03/26 00:06:43;;;;;;;31.45;23.15;;;;;;;;;;513710;28;987;-70
2022/03/26 00:06:58;;;;;;;30.00;22.53;;;;;;;;;;513773;28;982;-70
2022/03/26 00:07:13;;;;;;;29.60;22.17;;;;;;;;;;514302;28;919;-70
2022/03/26 00:07:28;;;;;;;31.75;22.52;;;;;;;;;;516215;28;884;-69
2022/03/26 00:07:44;;;;;;;32.00;22.70;;;;;;;;;;517848;28;756;-69
2022/03/26 00:08:00;;;;;;;29.77;22.52;;;;;;;;;;517684;28;823;-70
2022/03/26 00:08:15;;;;;;;29.00;21.83;;;;;;;;;;517726;28;907;-69
2022/03/26 00:08:31;;;;;;;30.45;21.98;;;;;;;;;;517908;28;871;-70
2022/03/26 00:08:48;;;;;;;30.83;21.83;;;;;;;;;;519777;28;1419;-69
2022/03/26 00:09:04;;;;;;;30.38;21.75;;;;;;;;;;519730;28;1391;-70
2022/03/26 00:09:20;;;;;;;29.95;21.85;;;;;;;;;;520006;28;875;-70
2022/03/26 00:09:35;;;;;;;29.47;22.37;;;;;;;;;;517792;28;836;-69
2022/03/26 00:09:50;;;;;;;29.92;22.70;;;;;;;;;;517800;28;795;-69
2022/03/26 00:10:06;;;;;;;30.73;22.47;;;;;;;;;;517482;28;1173;-69
2022/03/26 00:10:21;;;;;;;30.27;22.83;;;;;;;;;;516768;28;1320;-69
2022/03/26 00:10:37;;;;;;;30.00;23.20;;;;;;;;;;517432;28;923;-70
2022/03/26 00:10:52;;;;;;;31.13;23.10;;;;;;;;;;516410;28;738;-69
2022/03/26 00:11:07;;;;;;;31.17;23.05;;;;;;;;;;518187;28;859;-69
2022/03/26 00:11:22;;;;;;;30.77;22.60;;;;;;;;;;518043;28;773;-69
2022/03/26 00:11:38;;;;;;;32.57;22.90;;;;;;;;;;518056;28;978;-69
2022/03/26 00:11:53;;;;;;;33.13;23.57;;;;;;;;;;517923;28;1275;-69
2022/03/26 00:12:09;;;;;;;31.60;22.80;;;;;;;;;;518265;28;977;-69
2022/03/26 00:12:25;;;;;;;30.30;21.70;;;;;;;;;;518891;28;915;-69
2022/03/26 00:12:41;;;;;;;31.55;22.35;;;;;;;;;;519881;28;891;-69
2022/03/26 00:12:57;;;;;;;33.35;22.83;;;;;;;;;;519598;28;1096;-69
2022/03/26 00:13:13;;;;;;;33.05;22.67;;;;;;;;;;517092;28;1273;-69
2022/03/26 00:13:28;;;;;;;32.90;22.38;;;;;;;;;;518092;28;854;-69
2022/03/26 00:13:44;;;;;;;32.67;22.20;;;;;;;;;;517803;28;757;-69
2022/03/26 00:13:59;;;;;;;31.57;22.30;;;;;;;;;;517861;28;769;-69
2022/03/26 00:14:15;;;;;;;30.13;21.77;;;;;;;;;;517783;28;821;-69
2022/03/26 00:14:31;;;;;;;30.52;21.88;;;;;;;;;;517607;28;928;-69
2022/03/26 00:14:46;;;;;;;29.47;22.07;;;;;;;;;;517585;28;760;-69
2022/03/26 00:15:03;;;;;;;31.63;22.30;;;;;;;;;;517586;28;1180;-69
2022/03/26 00:15:19;;;;;;;33.58;22.58;;;;;;;;;;517104;28;856;-70
2022/03/26 00:15:35;;;;;;;31.17;22.50;;;;;;;;;;515166;28;1253;-70
2022/03/26 00:15:50;;;;;;;29.97;22.53;;;;;;;;;;515206;28;1157;-70
2022/03/26 00:16:05;;;;;;;29.92;22.50;;;;;;;;;;515959;28;730;-70
2022/03/26 00:16:20;;;;;;;31.30;22.73;;;;;;;;;;515747;28;776;-69
2022/03/26 00:16:36;;;;;;;30.43;22.53;;;;;;;;;;515763;28;757;-70
2022/03/26 00:16:51;;;;;;;28.73;22.33;;;;;;;;;;515814;28;1963;-69
2022/03/26 00:17:06;;;;;;;29.13;22.70;;;;;;;;;;516276;28;824;-70
2022/03/26 00:17:21;;;;;;;31.37;22.80;;;;;;;;;;517943;28;943;-69
2022/03/26 00:17:37;;;;;;;30.97;22.50;;;;;;;;;;517861;28;873;-70
2022/03/26 00:17:52;;;;;;;30.02;22.67;;;;;;;;;;519835;28;1324;-70
2022/03/26 00:18:07;;;;;;;33.20;23.03;;;;;;;;;;519873;28;1230;-70
2022/03/26 00:18:23;;;;;;;31.97;22.80;;;;;;;;;;519874;28;1399;-69
2022/03/26 00:18:38;;;;;;;29.35;22.30;;;;;;;;;;519565;28;874;-69
2022/03/26 00:18:53;;;;;;;29.87;22.23;;;;;;;;;;519945;28;927;-70
2022/03/26 00:19:09;;;;;;;29.63;22.37;;;;;;;;;;519978;28;939;-69
2022/03/26 00:19:24;;;;;;;29.50;22.42;;;;;;;;;;519969;28;1279;-69
2022/03/26 00:19:39;;;;;;;30.77;22.73;;;;;;;;;;519944;28;764;-69
2022/03/26 00:19:54;;;;;;;30.43;22.77;;;;;;;;;;517831;28;891;-69
2022/03/26 00:20:10;;;;;;;30.67;22.83;;;;;;;;;;515544;28;1189;-70
2022/03/26 00:20:26;;;;;;;30.03;22.63;;;;;;;;;;515220;28;1160;-69
2022/03/26 00:20:41;;;;;;;30.10;22.48;;;;;;;;;;515738;28;601;-70
2022/03/26 00:20:56;;;;;;;33.50;23.20;;;;;;;;;;513897;28;1386;-69
2022/03/26 00:21:12;;;;;;;32.93;23.47;;;;;;;;;;514298;28;824;-69
2022/03/26 00:21:27;;;;;;;31.83;23.15;;;;;;;;;;515836;28;843;-70
2022/03/26 00:21:42;;;;;;;32.60;23.53;;;;;;;;;;516117;28;788;-70
2022/03/26 00:21:58;;;;;;;31.52;22.95;;;;;;;;;;515967;28;912;-69
2022/03/26 00:22:13;;;;;;;31.47;22.47;;;;;;;;;;517881;28;935;-69
2022/03/26 00:22:28;;;;;;;30.93;22.80;;;;;;;;;;517930;28;817;-69
2022/03/26 00:22:43;;;;;;;30.77;23.00;;;;;;;;;;517531;28;800;-69
2022/03/26 00:22:59;;;;;;;32.53;23.10;;;;;;;;;;517841;28;757;-70
2022/03/26 00:23:14;;;;;;;31.27;22.80;;;;;;;;;;517926;28;1101;-69
2022/03/26 00:23:29;;;;;;;29.70;22.60;;;;;;;;;;517666;28;795;-69
2022/03/26 00:23:44;;;;;;;29.30;23.02;;;;;;;;;;517918;28;918;-69
2022/03/26 00:24:00;;;;;;;30.83;23.10;;;;;;;;;;517994;28;831;-69
2022/03/26 00:24:15;;;;;;;31.33;22.30;;;;;;;;;;517723;28;1233;-70
2022/03/26 00:24:31;;;;;;;29.92;22.25;;;;;;;;;;517816;28;728;-70
2022/03/26 00:24:46;;;;;;;29.93;22.40;;;;;;;;;;517333;28;922;-69
2022/03/26 00:25:03;;;;;;;31.08;22.70;;;;;;;;;;517694;28;784;-69
2022/03/26 00:25:18;;;;;;;32.40;23.27;;;;;;;;;;517126;28;1103;-70
2022/03/26 00:25:33;;;;;;;31.83;23.03;;;;;;;;;;517492;28;827;-70
2022/03/26 00:25:49;;;;;;;33.80;23.23;;;;;;;;;;517925;28;744;-69
2022/03/26 00:26:04;;;;;;;33.50;23.37;;;;;;;;;;518068;28;819;-70
2022/03/26 00:26:20;;;;;;;30.38;22.88;;;;;;;;;;517730;28;1314;-69
2022/03/26 00:26:35;;;;;;;31.17;22.27;;;;;;;;;;518002;28;1403;-69
2022/03/26 00:26:52;;;;;;;31.60;22.10;;;;;;;;;;517839;28;907;-69
2022/03/26 00:27:07;;;;;;;30.90;22.58;;;;;;;;;;517287;28;1449;-69
2022/03/26 00:27:22;;;;;;;30.67;22.67;;;;;;;;;;516021;28;1211;-69
2022/03/26 00:27:37;;;;;;;30.52;22.70;;;;;;;;;;516081;28;1347;-69
2022/03/26 00:27:53;;;;;;;29.27;22.67;;;;;;;;;;516510;28;928;-69
2022/03/26 00:28:08;;;;;;;28.43;22.67;;;;;;;;;;518130;28;997;-70
2022/03/26 00:28:25;;;;;;;28.48;22.83;;;;;;;;;;517896;28;1229;-69
2022/03/26 00:28:40;;;;;;;30.40;22.65;;;;;;;;;;517762;28;922;-69
2022/03/26 00:28:55;;;;;;;31.07;22.70;;;;;;;;;;515409;28;1268;-69
2022/03/26 00:29:10;;;;;;;29.58;22.58;;;;;;;;;;516083;28;768;-70
2022/03/26 00:29:25;;;;;;;30.10;22.77;;;;;;;;;;513838;28;1381;-69
2022/03/26 00:29:41;;;;;;;30.47;22.73;;;;;;;;;;514040;28;911;-69
2022/03/26 00:29:56;;;;;;;31.17;22.45;;;;;;;;;;513998;28;864;-69
2022/03/26 00:30:12;;;;;;;31.30;22.23;;;;;;;;;;511569;28;1280;-69
2022/03/26 00:30:27;;;;;;;31.65;22.35;;;;;;;;;;510179;29;1345;-69
2022/03/26 00:30:42;;;;;;;33.80;23.03;;;;;;;;;;511336;28;1466;-69
2022/03/26 00:30:58;;;;;;;33.30;23.07;;;;;;;;;;512338;28;1411;-69
2022/03/26 00:31:13;;;;;;;33.50;23.48;;;;;;;;;;512644;28;1364;-69
2022/03/26 00:31:29;;;;;;;32.43;23.70;;;;;;;;;;513882;28;843;-69
2022/03/26 00:31:45;;;;;;;31.33;23.38;;;;;;;;;;513790;28;1245;-69
2022/03/26 00:32:03;;;;;;;31.67;22.63;;;;;;;;;;513825;28;832;-69
2022/03/26 00:32:19;;;;;;;31.08;22.48;;;;;;;;;;515825;28;871;-69
2022/03/26 00:32:34;;;;;;;33.10;23.30;;;;;;;;;;515416;28;852;-70
2022/03/26 00:32:49;;;;;;;34.00;23.33;;;;;;;;;;513517;28;1539;-69
2022/03/26 00:33:04;;;;;;;36.20;23.53;;;;;;;;;;514050;28;1169;-69
2022/03/26 00:33:20;;;;;;;35.60;23.87;;;;;;;;;;515765;28;864;-70
2022/03/26 00:33:35;;;;;;;33.33;24.05;;;;;;;;;;515691;28;1327;-69
2022/03/26 00:33:52;;;;;;;33.00;24.17;;;;;;;;;;515838;28;816;-69
2022/03/26 00:34:09;;;;;;;31.67;23.43;;;;;;;;;;515684;28;1275;-70
2022/03/26 00:34:24;;;;;;;32.13;22.88;;;;;;;;;;515699;28;1344;-69
2022/03/26 00:34:39;;;;;;;32.63;23.07;;;;;;;;;;515967;28;897;-69
2022/03/26 00:34:54;;;;;;;31.47;23.07;;;;;;;;;;516224;28;757;-69
2022/03/26 00:35:10;;;;;;;31.80;22.80;;;;;;;;;;517427;28;1169;-69
2022/03/26 00:35:25;;;;;;;32.35;22.63;;;;;;;;;;516802;28;1196;-70
2022/03/26 00:35:41;;;;;;;33.67;23.07;;;;;;;;;;514322;28;1288;-69
2022/03/26 00:35:56;;;;;;;34.22;23.08;;;;;;;;;;514667;28;1407;-69
2022/03/26 00:36:12;;;;;;;31.37;22.73;;;;;;;;;;513804;28;1308;-70
2022/03/26 00:36:27;;;;;;;31.42;22.67;;;;;;;;;;513810;28;780;-69
2022/03/26 00:36:43;;;;;;;31.90;22.50;;;;;;;;;;513886;28;765;-70
2022/03/26 00:36:59;;;;;;;31.55;23.00;;;;;;;;;;514897;28;1911;-70
2022/03/26 00:37:16;;;;;;;30.52;22.92;;;;;;;;;;515790;28;1239;-69
2022/03/26 00:37:31;;;;;;;30.80;22.02;;;;;;;;;;517452;28;859;-70
2022/03/26 00:37:46;;;;;;;31.93;22.00;;;;;;;;;;518233;28;764;-69
2022/03/26 00:38:02;;;;;;;32.13;22.50;;;;;;;;;;519642;28;1351;-70
2022/03/26 00:38:17;;;;;;;33.00;23.05;;;;;;;;;;516718;28;878;-69
2022/03/26 00:38:32;;;;;;;31.10;22.77;;;;;;;;;;516446;28;1017;-69
2022/03/26 00:38:47;;;;;;;30.33;23.10;;;;;;;;;;518135;28;816;-70
2022/03/26 00:39:03;;;;;;;30.67;23.38;;;;;;;;;;517605;28;1295;-69
2022/03/26 00:39:18;;;;;;;30.67;23.00;;;;;;;;;;515279;28;855;-69
2022/03/26 00:39:34;;;;;;;31.73;22.47;;;;;;;;;;515687;28;848;-69
2022/03/26 00:39:50;;;;;;;30.20;21.95;;;;;;;;;;516287;28;812;-69
2022/03/26 00:40:06;;;;;;;31.90;22.83;;;;;;;;;;515545;28;1313;-69
2022/03/26 00:40:21;;;;;;;34.63;23.25;;;;;;;;;;514469;28;1176;-69
2022/03/26 00:40:37;;;;;;;33.45;22.52;;;;;;;;;;515589;28;970;-70
2022/03/26 00:40:52;;;;;;;32.70;22.57;;;;;;;;;;514304;28;1171;-69
2022/03/26 00:41:07;;;;;;;33.28;23.02;;;;;;;;;;515780;28;777;-71
2022/03/26 00:41:23;;;;;;;31.53;23.10;;;;;;;;;;515620;28;769;-69
2022/03/26 00:41:38;;;;;;;30.40;22.67;;;;;;;;;;515679;28;1210;-69
2022/03/26 00:41:54;;;;;;;32.50;22.33;;;;;;;;;;515773;28;865;-68
2022/03/26 00:42:09;;;;;;;34.30;22.45;;;;;;;;;;516019;28;990;-69
2022/03/26 00:42:25;;;;;;;33.23;22.57;;;;;;;;;;515882;28;895;-69
2022/03/26 00:42:40;;;;;;;30.47;22.57;;;;;;;;;;516197;28;1359;-69
2022/03/26 00:42:55;;;;;;;30.25;22.65;;;;;;;;;;516779;28;1340;-69
2022/03/26 00:43:11;;;;;;;33.33;22.67;;;;;;;;;;517637;28;1373;-69
2022/03/26 00:43:26;;;;;;;32.87;22.57;;;;;;;;;;516097;28;1171;-69
2022/03/26 00:43:41;;;;;;;30.17;22.60;;;;;;;;;;517582;28;831;-69
2022/03/26 00:43:57;;;;;;;30.08;22.48;;;;;;;;;;517947;28;773;-70
2022/03/26 00:44:12;;;;;;;31.53;22.67;;;;;;;;;;517849;28;898;-69
2022/03/26 00:44:27;;;;;;;33.80;23.90;;;;;;;;;;517775;28;756;-69
2022/03/26 00:44:43;;;;;;;32.80;23.48;;;;;;;;;;517432;28;895;-70
2022/03/26 00:44:58;;;;;;;30.10;22.50;;;;;;;;;;513613;28;1122;-69
2022/03/26 00:45:13;;;;;;;32.20;22.73;;;;;;;;;;513546;28;1265;-69
2022/03/26 00:45:29;;;;;;;33.17;22.30;;;;;;;;;;515659;28;807;-69
2022/03/26 00:45:44;;;;;;;30.73;22.67;;;;;;;;;;515530;28;1173;-69
2022/03/26 00:45:59;;;;;;;31.50;23.38;;;;;;;;;;515608;28;831;-69
2022/03/26 00:46:15;;;;;;;32.60;23.07;;;;;;;;;;515716;28;1284;-69
2022/03/26 00:46:30;;;;;;;32.20;22.83;;;;;;;;;;515710;28;843;-70
2022/03/26 00:46:46;;;;;;;30.70;22.27;;;;;;;;;;515471;28;879;-70
2022/03/26 00:47:02;;;;;;;29.20;22.10;;;;;;;;;;515705;28;963;-70
2022/03/26 00:47:17;;;;;;;30.85;23.20;;;;;;;;;;513645;28;1263;-70
2022/03/26 00:47:33;;;;;;;33.07;23.63;;;;;;;;;;512189;28;1353;-70
2022/03/26 00:47:48;;;;;;;32.00;22.93;;;;;;;;;;513472;28;780;-70
2022/03/26 00:48:04;;;;;;;30.90;22.52;;;;;;;;;;514083;28;864;-70
2022/03/26 00:48:20;;;;;;;30.90;22.30;;;;;;;;;;515663;28;906;-70
2022/03/26 00:48:35;;;;;;;29.88;22.30;;;;;;;;;;515406;28;1161;-70
2022/03/26 00:48:51;;;;;;;32.10;22.73;;;;;;;;;;515849;28;931;-70
2022/03/26 00:49:06;;;;;;;32.85;22.92;;;;;;;;;;515780;28;1264;-70
2022/03/26 00:49:21;;;;;;;31.37;23.43;;;;;;;;;;516066;28;1159;-70
2022/03/26 00:49:37;;;;;;;30.90;23.10;;;;;;;;;;517792;28;942;-70
2022/03/26 00:49:54;;;;;;;31.05;22.65;;;;;;;;;;517406;28;895;-69
2022/03/26 00:50:10;;;;;;;33.50;23.27;;;;;;;;;;517678;28;1025;-70
2022/03/26 00:50:26;;;;;;;33.08;23.23;;;;;;;;;;515346;28;1379;-70
2022/03/26 00:50:41;;;;;;;31.30;22.75;;;;;;;;;;515378;28;801;-70
2022/03/26 00:50:56;;;;;;;31.03;22.67;;;;;;;;;;516350;28;738;-70
2022/03/26 00:51:15;;;;;;;32.67;22.97;;;;;;;;;;515807;28;1154;-70
2022/03/26 00:51:30;;;;;;;33.63;23.80;;;;;;;;;;515961;28;1268;-70
2022/03/26 00:51:46;;;;;;;33.33;24.10;;;;;;;;;;514992;28;1181;-70
2022/03/26 00:52:03;;;;;;;33.17;23.60;;;;;;;;;;514067;28;1340;-70
2022/03/26 00:52:18;;;;;;;32.20;23.20;;;;;;;;;;516154;28;1344;-70
2022/03/26 00:52:34;;;;;;;32.80;23.30;;;;;;;;;;517713;28;780;-70
2022/03/26 00:52:49;;;;;;;31.77;23.33;;;;;;;;;;518073;28;808;-69
2022/03/26 00:53:04;;;;;;;32.57;23.40;;;;;;;;;;517963;28;804;-70
2022/03/26 00:53:20;;;;;;;33.47;23.33;;;;;;;;;;515731;28;1336;-70
2022/03/26 00:53:35;;;;;;;32.20;23.07;;;;;;;;;;515547;28;836;-70
2022/03/26 00:53:50;;;;;;;31.70;23.20;;;;;;;;;;514089;28;1165;-70
2022/03/26 00:54:08;;;;;;;31.27;23.57;;;;;;;;;;515377;28;804;-70
2022/03/26 00:54:24;;;;;;;30.65;23.52;;;;;;;;;;513684;28;1343;-70
2022/03/26 00:54:39;;;;;;;32.90;23.73;;;;;;;;;;513907;28;788;-70
2022/03/26 00:54:54;;;;;;;33.17;23.60;;;;;;;;;;513341;28;899;-70
2022/03/26 00:55:10;;;;;;;31.08;23.45;;;;;;;;;;513480;28;825;-70
2022/03/26 00:55:25;;;;;;;32.10;23.93;;;;;;;;;;511313;29;1142;-70
2022/03/26 00:55:41;;;;;;;32.78;23.88;;;;;;;;;;512240;28;1494;-70
2022/03/26 00:55:56;;;;;;;32.13;23.43;;;;;;;;;;515730;28;1082;-70
2022/03/26 00:56:12;;;;;;;32.00;23.37;;;;;;;;;;516045;28;733;-70
2022/03/26 00:56:27;;;;;;;33.35;23.67;;;;;;;;;;518010;28;869;-70
2022/03/26 00:56:43;;;;;;;34.47;24.17;;;;;;;;;;517867;28;934;-70
2022/03/26 00:56:59;;;;;;;35.72;23.35;;;;;;;;;;517845;28;1918;-70
2022/03/26 00:57:16;;;;;;;34.85;22.98;;;;;;;;;;515718;28;1126;-70
2022/03/26 00:57:31;;;;;;;31.88;23.33;;;;;;;;;;514211;28;1487;-70
2022/03/26 00:57:47;;;;;;;31.80;23.30;;;;;;;;;;515841;28;821;-70
2022/03/26 00:58:02;;;;;;;33.23;23.53;;;;;;;;;;515469;28;800;-70
2022/03/26 00:58:18;;;;;;;33.75;23.65;;;;;;;;;;513496;28;1311;-70
2022/03/26 00:58:33;;;;;;;31.63;23.30;;;;;;;;;;513599;28;1086;-69
2022/03/26 00:58:48;;;;;;;32.63;23.53;;;;;;;;;;513799;28;1295;-70
2022/03/26 00:59:04;;;;;;;33.45;23.42;;;;;;;;;;514238;28;1388;-70
2022/03/26 00:59:19;;;;;;;31.98;22.95;;;;;;;;;;516094;28;796;-70
2022/03/26 00:59:35;;;;;;;31.77;23.13;;;;;;;;;;517746;28;1149;-69
2022/03/26 00:59:50;;;;;;;31.77;23.67;;;;;;;;;;518116;28;1087;-70
2022/03/26 01:00:07;;;;;;;32.47;23.87;;;;;;;;;;517779;28;1169;-69
2022/03/26 01:00:22;;;;;;;33.38;24.08;;;;;;;;;;517336;28;891;-70
2022/03/26 01:00:38;;;;;;;34.23;23.90;;;;;;;;;;515875;28;1253;-70
2022/03/26 01:00:54;;;;;;;33.03;23.70;;;;;;;;;;516142;28;766;-70
2022/03/26 01:01:10;;;;;;;33.47;23.05;;;;;;;;;;517742;28;859;-69
2022/03/26 01:01:26;;;;;;;32.63;22.73;;;;;;;;;;517771;28;1052;-70
2022/03/26 01:01:41;;;;;;;31.83;23.20;;;;;;;;;;517839;28;745;-70
2022/03/26 01:01:57;;;;;;;32.42;23.67;;;;;;;;;;517791;28;776;-70
2022/03/26 01:02:12;;;;;;;33.65;23.58;;;;;;;;;;517883;28;813;-70
2022/03/26 01:02:28;;;;;;;34.13;23.03;;;;;;;;;;517753;28;939;-70
2022/03/26 01:02:43;;;;;;;32.57;22.97;;;;;;;;;;517985;28;744;-70
2022/03/26 01:03:02;;;;;;;31.58;23.23;;;;;;;;;;517794;28;1288;-70
2022/03/26 01:03:18;;;;;;;33.63;23.40;;;;;;;;;;517901;28;817;-70
2022/03/26 01:03:34;;;;;;;35.22;23.73;;;;;;;;;;517795;28;839;-70
2022/03/26 01:03:49;;;;;;;32.50;23.57;;;;;;;;;;517917;28;1374;-70
2022/03/26 01:04:05;;;;;;;33.13;23.75;;;;;;;;;;515706;28;1329;-70
2022/03/26 01:04:20;;;;;;;33.37;23.60;;;;;;;;;;515518;28;768;-70
2022/03/26 01:04:36;;;;;;;33.33;23.73;;;;;;;;;;512566;28;1195;-70
2022/03/26 01:04:51;;;;;;;34.28;23.95;;;;;;;;;;516145;28;1151;-70
2022/03/26 01:05:07;;;;;;;36.07;24.03;;;;;;;;;;517161;28;1168;-70
2022/03/26 01:05:22;;;;;;;34.90;23.58;;;;;;;;;;515333;28;1111;-70
2022/03/26 01:05:40;;;;;;;32.00;22.93;;;;;;;;;;515908;28;978;-70
2022/03/26 01:05:56;;;;;;;31.00;22.92;;;;;;;;;;515858;28;883;-71
2022/03/26 01:06:13;;;;;;;31.70;23.35;;;;;;;;;;515905;28;879;-70
2022/03/26 01:06:28;;;;;;;33.40;24.10;;;;;;;;;;515580;28;780;-70
2022/03/26 01:06:44;;;;;;;36.60;24.23;;;;;;;;;;516062;28;768;-71
2022/03/26 01:06:59;;;;;;;34.55;23.67;;;;;;;;;;515945;28;895;-70
2022/03/26 01:07:14;;;;;;;30.63;23.27;;;;;;;;;;515941;28;716;-69
2022/03/26 01:07:30;;;;;;;31.73;23.03;;;;;;;;;;515865;28;951;-70
2022/03/26 01:07:46;;;;;;;32.50;22.83;;;;;;;;;;516300;28;812;-70
2022/03/26 01:08:01;;;;;;;33.30;23.48;;;;;;;;;;516089;28;768;-70
2022/03/26 01:08:17;;;;;;;33.57;24.17;;;;;;;;;;516373;28;875;-70
2022/03/26 01:08:32;;;;;;;32.50;24.40;;;;;;;;;;517885;28;1192;-70
2022/03/26 01:08:48;;;;;;;32.50;23.77;;;;;;;;;;518046;28;918;-70
2022/03/26 01:09:03;;;;;;;32.20;22.85;;;;;;;;;;518243;28;800;-70
2022/03/26 01:09:18;;;;;;;32.03;23.33;;;;;;;;;;518296;28;753;-70
2022/03/26 01:09:34;;;;;;;31.57;23.43;;;;;;;;;;518106;28;1243;-70
2022/03/26 01:09:49;;;;;;;33.35;23.52;;;;;;;;;;518260;28;760;-70
2022/03/26 01:10:09;;;;;;;34.03;23.53;;;;;;;;;;518378;28;796;-70
2022/03/26 01:10:24;;;;;;;32.13;23.38;;;;;;;;;;516598;28;835;-70
2022/03/26 01:10:41;;;;;;;31.83;22.97;;;;;;;;;;515910;28;800;-70
2022/03/26 01:10:58;;;;;;;31.42;22.73;;;;;;;;;;516453;28;852;-70
2022/03/26 01:11:13;;;;;;;30.67;23.27;;;;;;;;;;514246;28;1445;-70
2022/03/26 01:11:29;;;;;;;35.63;23.70;;;;;;;;;;515616;28;781;-70
2022/03/26 01:11:44;;;;;;;36.00;23.63;;;;;;;;;;516390;28;923;-70
2022/03/26 01:12:00;;;;;;;32.40;23.33;;;;;;;;;;515294;28;1155;-70
2022/03/26 01:12:15;;;;;;;32.42;23.35;;;;;;;;;;514601;28;918;-70
2022/03/26 01:12:30;;;;;;;32.20;23.33;;;;;;;;;;516404;28;729;-70
2022/03/26 01:12:45;;;;;;;32.23;23.23;;;;;;;;;;515915;28;924;-70
2022/03/26 01:13:01;;;;;;;32.58;23.33;;;;;;;;;;516008;28;832;-70
2022/03/26 01:13:16;;;;;;;33.80;24.00;;;;;;;;;;516115;28;939;-69
2022/03/26 01:13:34;;;;;;;34.60;23.83;;;;;;;;;;516187;28;792;-70
2022/03/26 01:13:53;;;;;;;33.38;23.20;;;;;;;;;;516231;28;1275;-69
2022/03/26 01:14:08;;;;;;;32.83;23.02;;;;;;;;;;516299;28;871;-70
2022/03/26 01:14:24;;;;;;;31.50;22.85;;;;;;;;;;516225;28;1037;-70
2022/03/26 01:14:39;;;;;;;34.57;23.90;;;;;;;;;;516407;28;748;-69
2022/03/26 01:14:54;;;;;;;35.13;24.07;;;;;;;;;;515759;28;887;-70
2022/03/26 01:15:10;;;;;;;34.05;23.67;;;;;;;;;;516367;28;824;-69
2022/03/26 01:15:25;;;;;;;34.70;23.57;;;;;;;;;;515989;28;995;-69
2022/03/26 01:15:41;;;;;;;32.27;23.07;;;;;;;;;;516311;28;1232;-69
2022/03/26 01:15:56;;;;;;;34.13;23.10;;;;;;;;;;513849;28;1284;-70
2022/03/26 01:16:15;;;;;;;36.43;23.43;;;;;;;;;;514238;28;848;-70
2022/03/26 01:16:30;;;;;;;33.38;23.98;;;;;;;;;;514107;28;1244;-70
2022/03/26 01:16:46;;;;;;;32.75;23.52;;;;;;;;;;513928;28;1978;-70
2022/03/26 01:17:01;;;;;;;34.70;23.60;;;;;;;;;;514083;28;856;-69
2022/03/26 01:17:17;;;;;;;36.20;24.17;;;;;;;;;;514146;28;690;-70
2022/03/26 01:17:32;;;;;;;37.10;23.93;;;;;;;;;;514257;28;771;-70
2022/03/26 01:17:49;;;;;;;35.90;23.40;;;;;;;;;;514968;28;811;-70
2022/03/26 01:18:04;;;;;;;35.53;23.33;;;;;;;;;;514082;28;1392;-70
2022/03/26 01:18:20;;;;;;;33.45;23.60;;;;;;;;;;514578;28;935;-70
2022/03/26 01:18:35;;;;;;;31.30;23.47;;;;;;;;;;516292;28;911;-70
2022/03/26 01:18:52;;;;;;;33.08;23.27;;;;;;;;;;514030;28;1338;-70
2022/03/26 01:19:07;;;;;;;33.20;23.23;;;;;;;;;;511998;29;1383;-70
2022/03/26 01:19:22;;;;;;;31.92;23.55;;;;;;;;;;512143;28;1279;-70
2022/03/26 01:19:38;;;;;;;36.67;24.07;;;;;;;;;;512271;28;861;-70
2022/03/26 01:19:54;;;;;;;36.92;24.17;;;;;;;;;;514646;28;1248;-70
2022/03/26 01:20:10;;;;;;;34.17;24.85;;;;;;;;;;516254;28;1189;-70
2022/03/26 01:20:25;;;;;;;34.03;24.40;;;;;;;;;;515575;28;1318;-70
2022/03/26 01:20:40;;;;;;;33.22;23.83;;;;;;;;;;514218;28;1224;-70
2022/03/26 01:20:56;;;;;;;33.13;24.13;;;;;;;;;;514348;28;1328;-70
2022/03/26 01:21:11;;;;;;;33.10;23.83;;;;;;;;;;516051;28;812;-70
2022/03/26 01:21:26;;;;;;;32.88;23.65;;;;;;;;;;514057;28;1307;-70
2022/03/26 01:21:41;;;;;;;32.47;23.83;;;;;;;;;;514352;28;919;-70
2022/03/26 01:21:57;;;;;;;33.07;23.97;;;;;;;;;;514243;28;1004;-69
2022/03/26 01:22:12;;;;;;;35.83;23.95;;;;;;;;;;514362;28;959;-70
2022/03/26 01:22:27;;;;;;;38.00;23.67;;;;;;;;;;514411;28;773;-70
2022/03/26 01:22:43;;;;;;;37.57;23.20;;;;;;;;;;516277;28;1190;-69
2022/03/26 01:22:59;;;;;;;37.72;23.05;;;;;;;;;;518172;28;1017;-69
2022/03/26 01:23:16;;;;;;;35.90;22.90;;;;;;;;;;518136;28;761;-69
2022/03/26 01:23:32;;;;;;;34.45;23.08;;;;;;;;;;520312;28;890;-70
2022/03/26 01:23:49;;;;;;;32.95;23.33;;;;;;;;;;520292;28;915;-70
2022/03/26 01:24:05;;;;;;;33.35;23.45;;;;;;;;;;520418;28;824;-70
2022/03/26 01:24:20;;;;;;;33.25;23.30;;;;;;;;;;520431;28;836;-70
2022/03/26 01:24:36;;;;;;;32.60;23.43;;;;;;;;;;518052;28;1275;-70
2022/03/26 01:24:52;;;;;;;31.50;22.92;;;;;;;;;;517988;28;899;-70
2022/03/26 01:25:07;;;;;;;34.33;22.92;;;;;;;;;;517974;28;841;-70
2022/03/26 01:25:24;;;;;;;37.53;23.60;;;;;;;;;;517666;28;812;-70
2022/03/26 01:25:39;;;;;;;35.45;23.98;;;;;;;;;;518285;28;855;-70
2022/03/26 01:25:55;;;;;;;35.80;23.97;;;;;;;;;;518190;28;895;-70
2022/03/26 01:26:10;;;;;;;36.40;23.60;;;;;;;;;;518060;28;800;-70
2022/03/26 01:26:25;;;;;;;33.17;23.20;;;;;;;;;;518080;28;1144;-70
2022/03/26 01:26:41;;;;;;;32.27;23.63;;;;;;;;;;518234;28;812;-70
2022/03/26 01:26:57;;;;;;;32.05;23.65;;;;;;;;;;518274;28;952;-70
2022/03/26 01:27:12;;;;;;;31.80;23.15;;;;;;;;;;517984;28;816;-70
2022/03/26 01:27:27;;;;;;;32.33;23.60;;;;;;;;;;515790;28;1220;-70
2022/03/26 01:27:43;;;;;;;32.35;23.67;;;;;;;;;;516193;28;791;-70
2022/03/26 01:27:58;;;;;;;32.60;23.10;;;;;;;;;;516302;28;817;-69
2022/03/26 01:28:14;;;;;;;32.83;22.43;;;;;;;;;;516462;28;799;-70
2022/03/26 01:28:30;;;;;;;34.30;22.75;;;;;;;;;;516175;28;1192;-70
2022/03/26 01:28:45;;;;;;;35.67;23.58;;;;;;;;;;516191;28;797;-70
2022/03/26 01:29:01;;;;;;;34.40;23.85;;;;;;;;;;516304;28;836;-69
2022/03/26 01:29:17;;;;;;;33.30;23.93;;;;;;;;;;516521;28;749;-70
2022/03/26 01:29:32;;;;;;;33.03;23.50;;;;;;;;;;515895;28;1224;-70
2022/03/26 01:29:48;;;;;;;33.97;23.20;;;;;;;;;;516355;28;887;-70
2022/03/26 01:30:04;;;;;;;32.03;22.53;;;;;;;;;;516311;28;856;-70
2022/03/26 01:30:19;;;;;;;30.85;22.23;;;;;;;;;;514184;28;1403;-70
2022/03/26 01:30:34;;;;;;;31.87;22.63;;;;;;;;;;515892;28;1205;-69
2022/03/26 01:30:50;;;;;;;31.17;22.67;;;;;;;;;;516219;28;978;-70
2022/03/26 01:31:05;;;;;;;32.50;22.80;;;;;;;;;;515846;28;974;-70
2022/03/26 01:31:22;;;;;;;33.63;23.27;;;;;;;;;;515937;28;875;-70
2022/03/26 01:31:38;;;;;;;32.95;23.83;;;;;;;;;;513840;28;1284;-70
2022/03/26 01:31:53;;;;;;;31.23;23.17;;;;;;;;;;514375;28;669;-69
2022/03/26 01:32:09;;;;;;;29.40;22.45;;;;;;;;;;514792;28;947;-69
2022/03/26 01:32:25;;;;;;;31.23;22.70;;;;;;;;;;516901;28;1005;-70
2022/03/26 01:32:43;;;;;;;33.40;23.17;;;;;;;;;;516236;28;1157;-69
2022/03/26 01:32:58;;;;;;;35.88;23.02;;;;;;;;;;516137;28;840;-70
2022/03/26 01:33:14;;;;;;;35.50;22.67;;;;;;;;;;515912;28;815;-70
2022/03/26 01:33:30;;;;;;;32.93;22.77;;;;;;;;;;516704;28;916;-70
2022/03/26 01:33:49;;;;;;;33.22;23.08;;;;;;;;;;518013;28;903;-70
2022/03/26 01:34:04;;;;;;;32.50;22.75;;;;;;;;;;518094;28;914;-69
2022/03/26 01:34:22;;;;;;;33.10;23.10;;;;;;;;;;518308;28;772;-70
2022/03/26 01:34:37;;;;;;;31.92;22.58;;;;;;;;;;519636;28;1251;-70